createdAt,value
2018-08-25T00:02:53.780Z,17.80
2018-08-25T00:07:57.150Z,17.80
2018-08-25T00:13:00.464Z,17.80
2018-08-25T00:18:04.845Z,17.70
2018-08-25T00:23:09.636Z,17.60
2018-08-25T00:28:13.008Z,17.60
2018-08-25T00:33:16.316Z,17.30
2018-08-25T00:38:19.640Z,17.10
2018-08-25T00:43:22.919Z,17.00
2018-08-25T00:48:26.245Z,17.00
2018-08-25T00:53:29.649Z,16.90
2018-08-25T00:58:33.059Z,16.80
2018-08-25T01:03:36.431Z,16.80
2018-08-25T01:08:39.826Z,16.90
2018-08-25T01:13:43.123Z,16.90
2018-08-25T01:18:46.513Z,17.00
2018-08-25T01:23:49.945Z,17.10
2018-08-25T01:28:53.392Z,17.00
2018-08-25T01:33:57.792Z,17.10
2018-08-25T01:39:01.307Z,17.20
2018-08-25T01:44:04.677Z,17.10
2018-08-25T01:54:09.620Z,17.10
2018-08-25T01:59:13.011Z,17.10
2018-08-25T02:04:16.489Z,17.10
2018-08-25T02:09:19.979Z,17.00
2018-08-25T02:14:25.182Z,16.90
2018-08-25T02:19:28.452Z,16.90
2018-08-25T02:24:31.819Z,16.80
2018-08-25T02:29:35.128Z,16.80
2018-08-25T02:34:38.407Z,16.80
2018-08-25T02:39:41.741Z,16.70
2018-08-25T02:44:45.053Z,16.60
2018-08-25T02:49:48.364Z,16.70
2018-08-25T02:54:51.869Z,16.70
2018-08-25T02:59:55.253Z,16.60
2018-08-25T03:04:58.707Z,16.40
2018-08-25T03:15:14.991Z,16.10
2018-08-25T03:20:18.655Z,16.10
2018-08-25T03:25:21.984Z,16.10
2018-08-25T03:30:25.452Z,16.00
2018-08-25T03:35:28.744Z,15.90
2018-08-25T03:40:32.959Z,15.80
2018-08-25T03:45:36.271Z,15.80
2018-08-25T03:50:39.570Z,15.70
2018-08-25T03:55:42.853Z,15.50
2018-08-25T04:00:46.231Z,15.50
2018-08-25T04:05:49.556Z,15.40
2018-08-25T04:10:53.425Z,15.30
2018-08-25T04:16:02.934Z,15.30
2018-08-25T04:21:06.499Z,15.50
2018-08-25T04:26:09.869Z,15.50
2018-08-25T04:31:13.257Z,15.50
2018-08-25T04:36:18.487Z,15.50
2018-08-25T04:41:21.912Z,15.40
2018-08-25T04:46:25.116Z,15.40
2018-08-25T04:51:28.413Z,15.40
2018-08-25T04:56:31.829Z,15.40
2018-08-25T05:01:35.224Z,15.50
2018-08-25T05:06:38.670Z,15.60
2018-08-25T05:11:42.613Z,15.60
2018-08-25T05:16:45.879Z,15.70
2018-08-25T05:21:49.182Z,15.70
2018-08-25T05:26:54.236Z,15.80
2018-08-25T05:31:57.664Z,15.80
2018-08-25T05:37:02.804Z,15.90
2018-08-25T05:42:08.722Z,16.00
2018-08-25T05:47:12.127Z,16.00
2018-08-25T05:52:16.350Z,16.20
2018-08-25T05:57:19.683Z,16.20
2018-08-25T06:02:23.115Z,16.10
2018-08-25T06:07:26.401Z,16.10
2018-08-25T06:12:30.400Z,16.20
2018-08-25T06:17:34.739Z,16.10
2018-08-25T06:22:39.353Z,16.30
2018-08-25T06:27:42.759Z,16.20
2018-08-25T06:32:46.052Z,16.00
2018-08-25T06:37:49.458Z,16.00
2018-08-25T06:42:53.193Z,15.90
2018-08-25T06:47:57.135Z,15.90
2018-08-25T06:53:01.473Z,15.70
2018-08-25T06:58:05.053Z,15.60
2018-08-25T07:03:08.314Z,15.50
2018-08-25T07:08:11.681Z,15.50
2018-08-25T07:13:15.109Z,15.40
2018-08-25T07:18:18.436Z,15.40
2018-08-25T07:23:21.791Z,15.50
2018-08-25T07:28:25.163Z,15.40
2018-08-25T07:33:28.559Z,15.30
2018-08-25T07:38:31.883Z,15.30
2018-08-25T07:43:35.264Z,15.30
2018-08-25T07:48:39.255Z,15.40
2018-08-25T07:53:42.940Z,15.40
2018-08-25T07:58:46.854Z,15.50
2018-08-25T08:03:50.461Z,15.50
2018-08-25T08:08:53.804Z,15.80
2018-08-25T08:13:57.707Z,15.90
2018-08-25T08:19:10.201Z,16.00
2018-08-25T08:24:13.536Z,16.30
2018-08-25T08:29:16.947Z,16.40
2018-08-25T08:34:20.275Z,16.60
2018-08-25T08:39:23.747Z,16.60
2018-08-25T08:44:27.195Z,16.60
2018-08-25T08:49:46.306Z,16.70
2018-08-25T08:54:37.224Z,16.90
2018-08-25T08:59:40.547Z,16.90
2018-08-25T09:04:45.116Z,17.00
2018-08-25T09:09:48.545Z,17.10
2018-08-25T09:14:51.841Z,17.10
2018-08-25T09:19:55.131Z,17.20
2018-08-25T09:24:58.488Z,17.20
2018-08-25T09:30:02.054Z,16.80
2018-08-25T09:35:05.406Z,16.70
2018-08-25T09:40:08.632Z,16.80
2018-08-25T09:45:11.924Z,17.10
2018-08-25T09:50:15.227Z,17.30
2018-08-25T09:55:18.548Z,17.40
2018-08-25T10:00:28.606Z,17.40
2018-08-25T10:05:32.148Z,17.80
2018-08-25T10:10:39.384Z,18.70
2018-08-25T10:15:45.313Z,19.30
2018-08-25T10:20:48.572Z,18.90
2018-08-25T10:25:51.900Z,18.90
2018-08-25T10:30:55.280Z,18.50
2018-08-25T10:35:58.652Z,18.20
2018-08-25T10:41:02.000Z,17.90
2018-08-25T10:46:05.426Z,17.90
2018-08-25T10:51:08.730Z,17.80
2018-08-25T10:56:12.093Z,17.50
2018-08-25T11:01:15.657Z,17.60
2018-08-25T11:06:20.263Z,18.50
2018-08-25T11:11:24.301Z,19.50
2018-08-25T11:16:27.635Z,20.10
2018-08-25T11:21:31.357Z,20.80
2018-08-25T11:26:34.707Z,21.40
2018-08-25T11:31:38.040Z,21.50
2018-08-25T11:36:41.388Z,22.10
2018-08-25T11:41:44.839Z,23.00
2018-08-25T11:46:48.317Z,23.40
2018-08-25T11:51:51.675Z,22.30
2018-08-25T11:56:54.968Z,22.60
2018-08-25T12:01:58.260Z,23.00
2018-08-25T12:07:01.679Z,23.50
2018-08-25T12:12:06.995Z,23.00
2018-08-25T12:17:10.381Z,23.30
2018-08-25T12:22:14.915Z,23.70
2018-08-25T12:27:18.416Z,23.20
2018-08-25T12:32:21.769Z,22.50
2018-08-25T12:37:25.097Z,22.40
2018-08-25T12:42:28.469Z,22.50
2018-08-25T12:47:32.846Z,23.40
2018-08-25T12:52:39.009Z,23.70
2018-08-25T12:57:42.327Z,23.80
2018-08-25T13:02:45.650Z,23.20
2018-08-25T13:07:49.020Z,23.20
2018-08-25T13:12:52.409Z,23.50
2018-08-25T13:17:55.734Z,23.30
2018-08-25T13:22:59.181Z,23.60
2018-08-25T13:28:02.769Z,24.10
2018-08-25T13:33:12.721Z,24.00
2018-08-25T13:38:23.220Z,23.80
2018-08-25T13:43:26.983Z,22.90
2018-08-25T13:48:32.489Z,22.60
2018-08-25T13:53:36.016Z,22.70
2018-08-25T13:58:39.432Z,22.20
2018-08-25T14:03:42.813Z,21.90
2018-08-25T14:08:46.122Z,22.00
2018-08-25T14:13:49.705Z,21.90
2018-08-25T14:24:49.694Z,22.80
2018-08-25T14:29:54.724Z,23.40
2018-08-25T14:35:00.018Z,23.70
2018-08-25T14:40:14.510Z,23.50
2018-08-25T14:45:19.595Z,23.40
2018-08-25T14:50:25.005Z,23.00
2018-08-25T14:55:29.765Z,22.30
2018-08-25T15:00:36.652Z,22.30
2018-08-25T15:05:50.974Z,22.70
2018-08-25T15:10:57.786Z,23.40
2018-08-25T15:16:03.072Z,23.60
2018-08-25T15:21:09.475Z,23.80
2018-08-25T15:26:14.701Z,23.60
2018-08-25T15:31:22.674Z,23.10
2018-08-25T15:36:27.227Z,23.10
2018-08-25T15:41:32.201Z,23.30
2018-08-25T15:46:36.222Z,23.30
2018-08-25T15:51:39.579Z,23.20
2018-08-25T15:56:47.304Z,23.40
2018-08-25T16:01:51.035Z,23.70
2018-08-25T16:06:54.586Z,23.60
2018-08-25T16:12:00.072Z,23.60
2018-08-25T16:17:03.568Z,23.70
2018-08-25T16:22:06.907Z,23.70
2018-08-25T16:27:10.297Z,23.70
2018-08-25T16:32:13.767Z,24.10
2018-08-25T16:37:18.076Z,23.90
2018-08-25T16:42:21.442Z,23.80
2018-08-25T16:47:24.872Z,23.80
2018-08-25T16:52:28.226Z,24.20
2018-08-25T16:57:31.508Z,24.00
2018-08-25T17:02:34.870Z,23.20
2018-08-25T17:07:38.239Z,22.90
2018-08-25T17:12:41.635Z,22.10
2018-08-25T17:17:45.009Z,21.90
2018-08-25T17:22:49.044Z,21.40
2018-08-25T17:27:52.673Z,21.10
2018-08-25T17:32:56.097Z,20.70
2018-08-25T17:37:59.513Z,20.40
2018-08-25T17:43:02.895Z,20.50
2018-08-25T17:48:06.278Z,20.20
2018-08-25T17:53:09.611Z,20.10
2018-08-25T17:58:14.479Z,20.00
2018-08-25T18:03:17.917Z,20.10
2018-08-25T18:08:22.008Z,20.10
2018-08-25T18:13:26.326Z,20.10
2018-08-25T18:18:29.685Z,19.70
2018-08-25T18:23:33.051Z,19.60
2018-08-25T18:28:36.380Z,19.30
2018-08-25T18:33:44.805Z,19.00
2018-08-25T18:38:49.119Z,19.00
2018-08-25T18:43:54.863Z,18.60
2018-08-25T18:49:00.388Z,18.20
2018-08-25T18:54:11.294Z,17.70
2018-08-25T18:59:15.926Z,17.30
2018-08-25T19:04:24.435Z,17.00
2018-08-25T19:09:27.811Z,16.80
2018-08-25T19:14:31.200Z,16.80
2018-08-25T19:19:34.858Z,16.60
2018-08-25T19:24:38.337Z,16.70
2018-08-25T19:29:42.138Z,16.60
2018-08-25T19:34:47.902Z,16.50
2018-08-25T19:39:51.360Z,16.40
2018-08-25T19:44:54.777Z,16.30
2018-08-25T19:49:58.072Z,16.40
2018-08-25T19:55:02.239Z,16.30
2018-08-25T20:00:05.862Z,16.00
2018-08-25T20:05:09.154Z,16.00
2018-08-25T20:10:12.578Z,16.10
2018-08-25T20:15:16.066Z,16.20
2018-08-25T20:20:21.556Z,16.30
2018-08-25T20:25:24.933Z,16.30
2018-08-25T20:30:28.409Z,16.40
2018-08-25T20:35:31.769Z,16.30
2018-08-25T20:40:35.084Z,16.40
2018-08-25T20:45:39.629Z,16.50
2018-08-25T20:50:43.151Z,16.50
2018-08-25T20:55:46.544Z,16.60
2018-08-25T21:00:49.916Z,16.60
2018-08-25T21:05:53.212Z,16.40
2018-08-25T21:10:56.483Z,16.40
2018-08-25T21:16:00.626Z,16.50
2018-08-25T21:21:03.852Z,16.50
2018-08-25T21:26:08.269Z,16.50
2018-08-25T21:31:11.553Z,16.50
2018-08-25T21:36:14.835Z,16.50
2018-08-25T21:41:18.226Z,16.40
2018-08-25T21:46:21.532Z,16.30
2018-08-25T21:51:35.116Z,16.30
2018-08-25T21:56:39.290Z,16.20
2018-08-25T22:01:46.825Z,16.00
2018-08-25T22:06:50.084Z,16.00
2018-08-25T22:11:53.713Z,15.90
2018-08-25T22:16:57.015Z,15.80
2018-08-25T22:22:00.414Z,15.80
2018-08-25T22:27:03.838Z,15.80
2018-08-25T22:32:07.604Z,15.90
2018-08-25T22:37:12.199Z,15.90
2018-08-25T22:42:18.938Z,16.00
2018-08-25T22:47:25.063Z,15.80
2018-08-25T22:52:34.731Z,15.70
2018-08-25T22:57:38.071Z,15.70
2018-08-25T23:02:41.791Z,15.70
2018-08-25T23:07:45.174Z,15.60
2018-08-25T23:12:48.968Z,15.60
2018-08-25T23:17:55.623Z,15.50
2018-08-25T23:28:39.816Z,15.40
2018-08-25T23:33:43.138Z,15.40
2018-08-25T23:38:46.460Z,15.40
2018-08-25T23:43:49.768Z,15.30
2018-08-25T23:48:53.154Z,15.20
2018-08-25T23:53:56.592Z,15.30
2018-08-25T23:58:59.924Z,15.20
